ADDS METAR Data INFO
IDs: Format: Raw Decoded Include TAF

Data at: 0854 UTC 22 Feb 2018

KLVN 220835Z AUTO 00000KT 10SM CLR M18/M19 A3059 RMK AO2
KLVN 220815Z AUTO 00000KT 10SM CLR M17/M18 A3060 RMK AO2
KLVN 220755Z AUTO 00000KT 10SM M17/M18 A3060 RMK AO2
KLVN 220735Z AUTO 00000KT 10SM CLR M18/M19 A3060 RMK AO2
KLVN 220715Z AUTO 00000KT 10SM CLR M18/M19 A3060 RMK AO2
KLVN 220655Z AUTO 00000KT 10SM M17/M18 A3060 RMK AO2
KLVN 220635Z AUTO 00000KT 10SM CLR M17/M18 A3060 RMK AO2
KLVN 220615Z AUTO 00000KT 10SM M16/M17 A3061 RMK AO2
KLVN 220555Z AUTO 00000KT 10SM M16/M17 A3061 RMK AO2
KLVN 220535Z AUTO 00000KT 10SM CLR M17/M17 A3062 RMK AO2
KLVN 220515Z AUTO 00000KT 10SM M17/M18 A3063 RMK AO2
KLVN 220455Z AUTO 00000KT 10SM CLR M15/M17 A3064 RMK AO2
KLVN 220435Z AUTO 00000KT 10SM M17/M18 A3063 RMK AO2
KLVN 220415Z AUTO 00000KT 10SM M15/M17 A3064 RMK AO2
KLVN 220355Z AUTO 00000KT 10SM CLR M15/M16 A3064 RMK AO2
KLVN 220035Z AUTO 00000KT 10SM CLR M12/M15 A3064 RMK AO2
KLVN 220015Z AUTO 00000KT 10SM CLR M11/M15 A3064 RMK AO2
KLVN 212355Z AUTO 00000KT 10SM CLR M11/M15 A3063 RMK AO2
KLVN 212335Z AUTO 00000KT 10SM CLR M09/M15 A3063 RMK AO2
KLVN 212315Z AUTO 00000KT 10SM CLR M09/M15 A3063 RMK AO2
KLVN 212255Z AUTO 25003KT 10SM CLR M09/M14 A3062 RMK AO2
KLVN 212235Z AUTO 00000KT 10SM CLR M09/M16 A3062 RMK AO2
KLVN 212215Z AUTO 00000KT 10SM CLR M08/M14 A3062 RMK AO2
KLVN 212155Z AUTO 21003KT 10SM CLR M08/M15 A3062 RMK AO2
KLVN 212135Z AUTO 20005KT 10SM CLR M08/M15 A3062 RMK AO2
KLVN 212115Z AUTO 23005KT 10SM CLR M08/M16 A3063 RMK AO2
KLVN 212055Z AUTO 22003KT 10SM CLR M08/M15 A3063 RMK AO2
KLVN 212035Z AUTO 26004KT 10SM CLR M08/M15 A3062 RMK AO2
KLVN 212015Z AUTO 26005KT 10SM CLR M08/M16 A3062 RMK AO2
KLVN 211955Z AUTO 25006KT 10SM CLR M08/M15 A3062 RMK AO2
KLVN 211935Z AUTO 26004KT 10SM CLR M08/M15 A3061 RMK AO2
KLVN 211915Z AUTO 24004KT 10SM CLR M09/M16 A3063 RMK AO2
KLVN 211855Z AUTO 25004KT 10SM CLR M09/M16 A3063 RMK AO2
KLVN 211835Z AUTO 23004KT 10SM CLR M09/M16 A3063 RMK AO2
KLVN 211815Z AUTO 24004KT 10SM CLR M10/M16 A3063 RMK AO2
KLVN 211755Z AUTO 25005KT 10SM CLR M10/M16 A3063 RMK AO2
KLVN 211735Z AUTO 24004KT 10SM CLR M11/M16 A3063 RMK AO2
KLVN 211715Z AUTO 00000KT 10SM CLR M11/M16 A3063 RMK AO2
KLVN 211655Z AUTO 22003KT 10SM CLR M12/M17 A3063 RMK AO2
KLVN 211635Z AUTO 26006KT 10SM CLR M13/M17 A3061 RMK AO2
KLVN 211615Z AUTO 26006KT 10SM CLR M13/M17 A3061 RMK AO2
KLVN 211555Z AUTO 26005KT 10SM CLR M14/M18 A3060 RMK AO2
KLVN 211535Z AUTO 25005KT 10SM CLR M14/M18 A3059 RMK AO2
KLVN 211515Z AUTO 25005KT 10SM CLR M15/M19 A3058 RMK AO2
KLVN 211455Z AUTO 26004KT 10SM CLR M15/M19 A3058 RMK AO2
KLVN 211435Z AUTO 27007KT 10SM CLR M16/M19 A3057 RMK AO2
KLVN 211415Z AUTO 25004KT 10SM CLR M17/M19 A3056 RMK AO2
KLVN 211355Z AUTO 24003KT 10SM CLR M17/M20 A3056 RMK AO2
KLVN 211335Z AUTO 23003KT 10SM CLR M18/M20 A3055 RMK AO2
KLVN 211315Z AUTO 25003KT 10SM CLR M18/M20 A3054 RMK AO2
KLVN 211255Z AUTO 25003KT 10SM CLR M18/M20 A3054 RMK AO2
KLVN 211235Z AUTO 25003KT 10SM CLR M18/M20 A3053 RMK AO2
KLVN 210755Z AUTO 26004KT 10SM CLR M16/M18 A3043 RMK AO2
KLVN 210735Z AUTO 27004KT 10SM CLR M16/M18 A3042 RMK AO2
KLVN 210715Z AUTO 28005KT 10SM CLR M16/M18 A3041 RMK AO2
KLVN 210655Z AUTO 27005KT 10SM CLR M16/M18 A3040 RMK AO2
KLVN 210635Z AUTO 28006KT 10SM CLR M16/M18 A3039 RMK AO2
KLVN 210615Z AUTO 28005KT 10SM CLR M16/M17 A3039 RMK AO2
KLVN 210555Z AUTO 28005KT 10SM CLR M15/M17 A3037 RMK AO2